Kezdőlap
METAR-TAF:

METAR-TAF

Repülőterek :

Nagyvárad, Románia

földrajzi szélesség: 47-03N, földrajzi hosszúság: 021-56E, magasság: 135 m

Jelenlegi meteorológiai megfigyelések

A jelentés 19 perccel ezelõtt készült, 02:30 UTC
Keleti szél 6 kt
Hőmérséklet 17°C
Páratartalom 94%
Légköri nyomás 1015 hPa
Látótávolság 10 km, vagy több

METAR: LROD 210230Z AUTO 10006KT 9999 NCD 17/16 Q1015

Idő: 05:49 (02:49 UTC)

Előrejelzés

A jelentés 9 órával és 49 perccel ezelõtt készült, 17:00 UTC
Az előrejelzés 20-én 18 óra UTC és 21-én 03 óra UTC között érvényes
Keleti szél 6 kt
Látótávolság 10 km, vagy több
felhőtlen 1500 m magasságban, és nincs gomolyfelhõ

TAF: LROD 201700Z 2018/2103 10006KT CAVOK

Meteorológiai megfigyelések és előrejelzések több, mint 4000 repülőtéren (METAR és TAF jelentéseket).

A térképen piros és sárga pontok jelzik az elérhető meteorológiai állomásokat.

Mozgassa az egeret a pont fölött, hogy megjelenjen az állomás neve.

Azután kattintson az időjárási megfigyelések és előrejelzések megtekintéséhez.

A térkép megváltoztatása: kattintson a fekete keresztel jelölt zöld gombra ráközelítéshez, a vonallal jelölt zöld gombra távolításhoz, vagy a zöld nyilakra a szomszédos térképek eléréséhez.


METAR-TAF: